createdAt,value
2023-02-22T00:00:56.251Z,2.83
2023-02-22T00:03:26.207Z,2.83
2023-02-22T00:05:58.118Z,3.17
2023-02-22T00:08:30.495Z,3.10
2023-02-22T00:10:58.490Z,3.20
2023-02-22T00:13:25.554Z,3.47
2023-02-22T00:15:52.314Z,3.20
2023-02-22T00:18:19.620Z,3.53
2023-02-22T00:20:46.351Z,3.10
2023-02-22T00:23:19.688Z,3.13
2023-02-22T00:25:48.031Z,3.03
2023-02-22T00:28:17.004Z,3.17
2023-02-22T00:30:44.346Z,3.10
2023-02-22T00:33:13.043Z,2.95
2023-02-22T00:35:40.232Z,2.90
2023-02-22T00:38:08.014Z,3.10
2023-02-22T00:40:35.912Z,3.15
2023-02-22T00:43:04.930Z,3.17
2023-02-22T00:45:33.654Z,3.03
2023-02-22T00:48:01.445Z,3.17
2023-02-22T00:50:29.857Z,3.00
2023-02-22T00:52:58.150Z,3.00
2023-02-22T00:55:33.861Z,3.25
2023-02-22T00:58:01.994Z,3.20
2023-02-22T01:00:33.483Z,3.10
2023-02-22T01:03:00.743Z,2.88
2023-02-22T01:05:30.460Z,3.10
2023-02-22T01:08:00.523Z,2.85
2023-02-22T01:10:29.930Z,3.30
2023-02-22T01:12:58.352Z,2.97
2023-02-22T01:15:28.938Z,3.35
2023-02-22T01:17:58.275Z,3.30
2023-02-22T01:20:26.589Z,3.10
2023-02-22T01:22:55.962Z,3.40
2023-02-22T01:25:28.718Z,3.45
2023-02-22T01:27:58.494Z,4.00
2023-02-22T01:30:29.511Z,3.17
2023-02-22T01:32:57.109Z,2.90
2023-02-22T01:35:28.651Z,3.25
2023-02-22T01:37:56.382Z,3.33
2023-02-22T01:40:30.929Z,2.70
2023-02-22T01:43:01.508Z,3.00
2023-02-22T01:45:32.653Z,2.72
2023-02-22T01:48:21.071Z,2.95
2023-02-22T01:50:54.263Z,3.17
2023-02-22T01:53:30.334Z,3.08
2023-02-22T01:55:58.467Z,3.40
2023-02-22T01:58:27.014Z,2.60
2023-02-22T02:00:53.860Z,2.85
2023-02-22T02:03:28.350Z,3.00
2023-02-22T02:05:58.754Z,2.85
2023-02-22T02:08:42.535Z,2.88
2023-02-22T02:11:10.175Z,2.72
2023-02-22T02:13:37.483Z,3.00
2023-02-22T02:16:05.481Z,2.85
2023-02-22T02:18:32.609Z,2.80
2023-02-22T02:21:18.444Z,2.78
2023-02-22T02:24:30.812Z,2.63
2023-02-22T02:27:13.154Z,3.05
2023-02-22T02:30:07.307Z,2.50
2023-02-22T02:33:19.789Z,3.08
2023-02-22T02:35:54.087Z,3.55
2023-02-22T02:38:38.545Z,3.85
2023-02-22T02:41:14.934Z,4.13
2023-02-22T02:43:57.340Z,4.20
2023-02-22T02:46:26.472Z,3.50
2023-02-22T02:48:57.699Z,3.55
2023-02-22T02:51:29.267Z,3.20
2023-02-22T02:53:56.911Z,3.47
2023-02-22T02:56:25.467Z,3.10
2023-02-22T02:58:57.881Z,2.85
2023-02-22T03:01:37.085Z,2.63
2023-02-22T03:04:33.304Z,3.05
2023-02-22T03:07:22.315Z,2.95
2023-02-22T03:10:09.602Z,2.95
2023-02-22T03:12:54.201Z,3.10
2023-02-22T03:15:40.237Z,2.58
2023-02-22T03:18:17.940Z,2.50
2023-02-22T03:20:55.267Z,2.70
2023-02-22T03:23:27.184Z,2.80
2023-02-22T03:26:12.092Z,2.92
2023-02-22T03:28:42.975Z,2.70
2023-02-22T03:31:19.860Z,2.70
2023-02-22T03:33:52.747Z,2.90
2023-02-22T03:36:28.959Z,2.63
2023-02-22T03:38:58.898Z,2.92
2023-02-22T03:41:28.590Z,2.90
2023-02-22T03:44:01.906Z,2.63
2023-02-22T03:46:30.051Z,2.90
2023-02-22T03:49:11.961Z,3.28
2023-02-22T03:51:41.086Z,2.88
2023-02-22T03:54:16.174Z,2.90
2023-02-22T03:56:52.937Z,2.60
2023-02-22T03:59:27.593Z,2.95
2023-02-22T04:01:57.261Z,3.00
2023-02-22T04:04:25.119Z,3.17
2023-02-22T04:06:52.523Z,3.25
2023-02-22T04:09:20.068Z,3.30
2023-02-22T04:11:47.495Z,3.50
2023-02-22T04:14:14.851Z,3.72
2023-02-22T04:16:42.319Z,3.50
2023-02-22T04:19:11.580Z,3.70
2023-02-22T04:21:39.514Z,3.40
2023-02-22T04:24:11.758Z,3.65
2023-02-22T04:26:46.084Z,3.17
2023-02-22T04:29:12.907Z,3.47
2023-02-22T04:31:41.708Z,3.22
2023-02-22T04:34:10.872Z,3.70
2023-02-22T04:36:42.325Z,3.75
2023-02-22T04:39:09.735Z,3.40
2023-02-22T04:41:36.572Z,3.55
2023-02-22T04:44:03.643Z,3.58
2023-02-22T04:46:31.975Z,3.70
2023-02-22T04:48:59.043Z,3.60
2023-02-22T04:51:28.595Z,3.60
2023-02-22T04:54:19.639Z,3.60
2023-02-22T04:56:47.463Z,3.28
2023-02-22T04:59:14.930Z,3.20
2023-02-22T05:01:44.792Z,3.60
2023-02-22T05:04:12.627Z,3.50
2023-02-22T05:06:42.471Z,3.95
2023-02-22T05:09:09.464Z,3.80
2023-02-22T05:11:36.529Z,3.58
2023-02-22T05:14:03.423Z,3.28
2023-02-22T05:16:30.335Z,3.55
2023-02-22T05:18:57.218Z,3.45
2023-02-22T05:21:24.062Z,3.55
2023-02-22T05:23:50.790Z,3.38
2023-02-22T05:26:17.638Z,3.45
2023-02-22T05:28:51.491Z,3.50
2023-02-22T05:31:38.506Z,3.53
2023-02-22T05:34:10.939Z,3.20
2023-02-22T05:36:38.200Z,3.00
2023-02-22T05:39:05.428Z,3.30
2023-02-22T05:41:32.217Z,3.50
2023-02-22T05:43:59.175Z,3.40
2023-02-22T05:46:25.928Z,3.10
2023-02-22T05:48:52.688Z,3.30
2023-02-22T05:51:19.694Z,3.40
2023-02-22T05:53:46.499Z,3.55
2023-02-22T05:56:13.250Z,3.50
2023-02-22T05:58:39.973Z,3.47
2023-02-22T06:01:06.794Z,3.63
2023-02-22T06:03:33.544Z,3.70
2023-02-22T06:06:00.280Z,3.40
2023-02-22T06:08:27.006Z,3.50
2023-02-22T06:10:54.485Z,3.58
2023-02-22T06:13:25.232Z,3.63
2023-02-22T06:15:51.981Z,3.40
2023-02-22T06:18:18.798Z,3.50
2023-02-22T06:20:45.621Z,3.60
2023-02-22T06:23:12.364Z,3.60
2023-02-22T06:25:39.259Z,3.55
2023-02-22T06:28:06.066Z,3.30
2023-02-22T06:30:32.901Z,3.40
2023-02-22T06:33:00.180Z,3.50
2023-02-22T06:35:27.282Z,3.42
2023-02-22T06:37:54.198Z,3.70
2023-02-22T06:40:21.379Z,3.55
2023-02-22T06:42:49.336Z,3.45
2023-02-22T06:45:18.069Z,3.30
2023-02-22T06:47:45.043Z,3.50
2023-02-22T06:50:38.232Z,3.40
2023-02-22T06:53:05.329Z,3.70
2023-02-22T06:55:33.974Z,3.47
2023-02-22T06:58:01.785Z,3.38
2023-02-22T07:00:30.640Z,3.45
2023-02-22T07:03:00.344Z,3.38
2023-02-22T07:05:28.536Z,3.60
2023-02-22T07:08:01.567Z,3.45
2023-02-22T07:10:30.550Z,3.30
2023-02-22T07:12:57.664Z,3.40
2023-02-22T07:15:28.123Z,3.30
2023-02-22T07:17:55.818Z,3.30
2023-02-22T07:20:24.619Z,4.00
2023-02-22T07:22:51.687Z,3.97
2023-02-22T07:25:19.350Z,3.78
2023-02-22T07:27:48.188Z,4.00
2023-02-22T07:30:18.859Z,3.80
2023-02-22T07:32:46.803Z,4.00
2023-02-22T07:35:36.872Z,4.10
2023-02-22T07:38:10.626Z,3.72
2023-02-22T07:40:39.007Z,3.60
2023-02-22T07:43:21.095Z,3.92
2023-02-22T07:45:50.045Z,3.38
2023-02-22T07:48:18.219Z,3.50
2023-02-22T07:50:45.606Z,3.28
2023-02-22T07:53:15.279Z,3.15
2023-02-22T07:55:42.064Z,3.58
2023-02-22T07:58:09.539Z,3.63
2023-02-22T08:00:39.301Z,3.80
2023-02-22T08:03:08.942Z,3.05
2023-02-22T08:05:37.548Z,3.28
2023-02-22T08:08:06.335Z,3.80
2023-02-22T08:10:35.256Z,3.40
2023-02-22T08:13:03.090Z,3.35
2023-02-22T08:15:33.018Z,3.10
2023-02-22T08:18:01.408Z,3.03
2023-02-22T08:20:30.360Z,3.20
2023-02-22T08:22:58.102Z,3.10
2023-02-22T08:25:27.766Z,2.90
2023-02-22T08:28:02.816Z,2.75
2023-02-22T08:30:32.285Z,2.67
2023-02-22T08:32:59.665Z,3.03
2023-02-22T08:35:27.504Z,3.28
2023-02-22T08:37:57.624Z,3.58
2023-02-22T08:40:27.779Z,3.22
2023-02-22T08:42:55.584Z,3.17
2023-02-22T08:45:22.364Z,3.22
2023-02-22T08:47:49.537Z,2.83
2023-02-22T08:50:28.771Z,3.33
2023-02-22T08:52:59.437Z,3.05
2023-02-22T08:55:30.195Z,2.78
2023-02-22T08:57:57.091Z,2.60
2023-02-22T09:00:29.483Z,2.70
2023-02-22T09:02:56.505Z,3.28
2023-02-22T09:05:23.264Z,3.22
2023-02-22T09:07:50.012Z,3.70
2023-02-22T09:10:26.382Z,3.20
2023-02-22T09:12:57.634Z,3.30
2023-02-22T09:15:25.842Z,3.60
2023-02-22T09:17:53.431Z,3.60
2023-02-22T09:20:21.728Z,3.50
2023-02-22T09:22:49.767Z,4.45
2023-02-22T09:25:17.903Z,4.57
2023-02-22T09:27:47.953Z,5.00
2023-02-22T09:30:27.011Z,4.50
2023-02-22T09:32:56.135Z,4.90
2023-02-22T09:35:29.915Z,4.07
2023-02-22T09:37:58.477Z,4.00
2023-02-22T09:40:29.633Z,3.40
2023-02-22T09:43:07.212Z,3.83
2023-02-22T09:45:57.862Z,3.35
2023-02-22T09:48:25.457Z,2.88
2023-02-22T09:50:58.465Z,2.78
2023-02-22T09:53:37.151Z,3.20
2023-02-22T09:56:18.159Z,3.58
2023-02-22T09:58:48.620Z,3.03
2023-02-22T10:01:39.156Z,3.20
2023-02-22T10:04:30.418Z,2.70
2023-02-22T10:07:15.187Z,2.47
2023-02-22T10:09:45.341Z,2.60
2023-02-22T10:12:30.752Z,2.60
2023-02-22T10:15:27.677Z,2.50
2023-02-22T10:18:36.481Z,2.50
2023-02-22T10:21:19.926Z,2.60
2023-02-22T10:23:55.637Z,2.38
2023-02-22T10:26:36.710Z,2.58
2023-02-22T10:29:28.266Z,2.60
2023-02-22T10:31:59.268Z,2.75
2023-02-22T10:34:30.143Z,2.05
2023-02-22T10:37:20.352Z,2.38
2023-02-22T10:39:49.894Z,2.80
2023-02-22T10:42:16.754Z,2.35
2023-02-22T10:44:43.655Z,2.15
2023-02-22T10:47:17.125Z,2.50
2023-02-22T10:49:54.175Z,2.33
2023-02-22T10:52:30.820Z,2.25
2023-02-22T10:55:14.074Z,1.92
2023-02-22T10:57:44.337Z,2.30
2023-02-22T11:00:20.782Z,2.80
2023-02-22T11:02:54.086Z,2.60
2023-02-22T11:05:38.955Z,2.55
2023-02-22T11:10:48.812Z,2.85
2023-02-22T11:13:25.844Z,2.88
2023-02-22T11:15:54.546Z,2.33
2023-02-22T11:18:35.139Z,2.60
2023-02-22T11:21:07.990Z,3.13
2023-02-22T11:23:36.499Z,2.60
2023-02-22T11:26:17.518Z,2.85
2023-02-22T11:28:49.524Z,2.78
2023-02-22T11:31:24.269Z,3.35
2023-02-22T11:36:37.632Z,3.60
2023-02-22T11:39:20.250Z,3.30
2023-02-22T11:41:49.441Z,3.80
2023-02-22T11:44:28.681Z,3.35
2023-02-22T11:47:01.327Z,3.47
2023-02-22T11:49:38.191Z,3.42
2023-02-22T11:52:38.066Z,3.38
2023-02-22T11:55:42.139Z,4.32
2023-02-22T11:58:26.811Z,4.00
2023-02-22T12:01:22.045Z,3.25
2023-02-22T12:03:58.376Z,3.85
2023-02-22T12:06:32.967Z,4.75
2023-02-22T12:09:28.521Z,3.92
2023-02-22T12:14:43.150Z,3.97
2023-02-22T12:17:32.945Z,4.47
2023-02-22T12:20:10.179Z,3.67
2023-02-22T12:22:45.376Z,4.88
2023-02-22T12:25:22.771Z,3.30
2023-02-22T12:27:54.069Z,2.88
2023-02-22T12:30:37.261Z,3.83
2023-02-22T12:33:12.075Z,3.55
2023-02-22T12:35:42.831Z,3.00
2023-02-22T12:38:22.924Z,2.90
2023-02-22T12:41:18.412Z,2.97
2023-02-22T12:43:59.172Z,3.70
2023-02-22T12:46:43.580Z,3.70
2023-02-22T12:49:33.320Z,4.22
2023-02-22T12:52:26.194Z,4.03
2023-02-22T12:55:37.232Z,3.88
2023-02-22T12:58:33.625Z,4.00
2023-02-22T13:01:12.075Z,3.78
2023-02-22T13:03:43.944Z,4.13
2023-02-22T13:06:53.834Z,3.38
2023-02-22T13:09:55.712Z,4.43
2023-02-22T13:12:57.852Z,3.50
2023-02-22T13:15:36.242Z,2.90
2023-02-22T13:18:21.766Z,3.05
2023-02-22T13:21:08.668Z,3.13
2023-02-22T13:24:03.494Z,3.22
2023-02-22T13:26:56.013Z,3.55
2023-02-22T13:29:34.556Z,2.90
2023-02-22T13:32:38.095Z,3.40
2023-02-22T13:35:24.071Z,3.17
2023-02-22T13:38:17.294Z,2.78
2023-02-22T13:41:02.537Z,3.40
2023-02-22T13:43:41.644Z,2.90
2023-02-22T13:46:39.054Z,2.92
2023-02-22T13:49:31.318Z,3.00
2023-02-22T13:52:06.694Z,3.63
2023-02-22T13:54:34.293Z,3.55
2023-02-22T13:57:03.045Z,3.40
2023-02-22T13:59:36.664Z,2.92
2023-02-22T14:02:05.616Z,3.10
2023-02-22T14:04:32.347Z,3.30
2023-02-22T14:07:06.253Z,2.50
2023-02-22T14:10:05.473Z,2.50
2023-02-22T14:12:35.047Z,2.92
2023-02-22T14:15:26.515Z,2.40
2023-02-22T14:18:01.927Z,2.70
2023-02-22T14:20:38.138Z,2.28
2023-02-22T14:23:24.051Z,2.08
2023-02-22T14:25:51.452Z,2.78
2023-02-22T14:28:42.501Z,2.30
2023-02-22T14:31:17.444Z,2.63
2023-02-22T14:33:56.746Z,2.65
2023-02-22T14:36:29.172Z,2.80
2023-02-22T14:39:06.762Z,2.40
2023-02-22T14:41:34.413Z,2.45
2023-02-22T14:44:03.936Z,2.63
2023-02-22T14:46:34.770Z,2.85
2023-02-22T14:49:05.436Z,2.80
2023-02-22T14:51:42.198Z,2.97
2023-02-22T14:54:46.749Z,2.67
2023-02-22T14:57:24.347Z,2.10
2023-02-22T15:00:20.137Z,1.70
2023-02-22T15:02:52.589Z,2.75
2023-02-22T15:05:20.792Z,1.88
2023-02-22T15:07:53.719Z,1.85
2023-02-22T15:10:50.348Z,2.00
2023-02-22T15:13:24.046Z,2.05
2023-02-22T15:16:04.757Z,2.22
2023-02-22T15:18:44.252Z,2.22
2023-02-22T15:21:15.930Z,2.08
2023-02-22T15:24:12.172Z,1.60
2023-02-22T15:26:51.988Z,1.90
2023-02-22T15:29:36.909Z,1.75
2023-02-22T15:32:27.375Z,1.63
2023-02-22T15:34:57.421Z,1.40
2023-02-22T15:37:27.882Z,1.38
2023-02-22T15:40:14.593Z,1.33
2023-02-22T15:42:50.376Z,1.48
2023-02-22T15:45:22.620Z,1.52
2023-02-22T15:47:49.940Z,1.45
2023-02-22T15:50:33.264Z,1.60
2023-02-22T15:53:06.758Z,1.60
2023-02-22T15:55:42.841Z,1.52
2023-02-22T15:58:18.670Z,1.38
2023-02-22T16:00:50.395Z,1.60
2023-02-22T16:03:27.941Z,1.30
2023-02-22T16:05:59.811Z,1.40
2023-02-22T16:08:55.180Z,1.50
2023-02-22T16:11:45.336Z,1.33
2023-02-22T16:14:40.080Z,1.35
2023-02-22T16:17:35.509Z,1.35
2023-02-22T16:22:40.497Z,1.10
2023-02-22T16:25:19.584Z,1.20
2023-02-22T16:27:58.321Z,1.45
2023-02-22T16:30:37.100Z,1.10
2023-02-22T16:33:09.926Z,1.20
2023-02-22T16:35:36.773Z,1.45
2023-02-22T16:38:06.795Z,1.25
2023-02-22T16:40:45.597Z,1.20
2023-02-22T16:43:15.116Z,1.35
2023-02-22T16:45:42.742Z,1.40
2023-02-22T16:48:20.421Z,1.35
2023-02-22T16:50:53.065Z,1.30
2023-02-22T16:53:22.649Z,1.40
2023-02-22T16:55:53.814Z,1.45
2023-02-22T16:58:21.051Z,1.50
2023-02-22T17:00:47.996Z,1.73
2023-02-22T17:03:16.889Z,1.90
2023-02-22T17:05:46.919Z,2.00
2023-02-22T17:08:16.247Z,2.20
2023-02-22T17:10:46.283Z,2.40
2023-02-22T17:13:23.521Z,2.30
2023-02-22T17:15:54.665Z,2.30
2023-02-22T17:18:23.190Z,2.13
2023-02-22T17:20:51.746Z,2.72
2023-02-22T17:23:19.998Z,2.40
2023-02-22T17:26:04.121Z,2.13
2023-02-22T17:28:31.781Z,2.08
2023-02-22T17:31:02.672Z,2.30
2023-02-22T17:33:33.262Z,2.17
2023-02-22T17:36:02.025Z,2.30
2023-02-22T17:38:30.505Z,2.13
2023-02-22T17:40:59.039Z,2.03
2023-02-22T17:43:34.643Z,1.98
2023-02-22T17:46:07.758Z,2.00
2023-02-22T17:48:35.442Z,2.00
2023-02-22T17:51:12.184Z,1.95
2023-02-22T17:53:39.229Z,2.45
2023-02-22T17:56:08.023Z,2.58
2023-02-22T17:58:35.378Z,2.75
2023-02-22T18:01:02.609Z,2.60
2023-02-22T18:03:29.468Z,2.60
2023-02-22T18:05:58.807Z,2.28
2023-02-22T18:08:31.068Z,2.42
2023-02-22T18:10:58.824Z,2.42
2023-02-22T18:13:27.600Z,2.40
2023-02-22T18:16:01.068Z,2.40
2023-02-22T18:18:28.520Z,2.30
2023-02-22T18:20:59.369Z,2.40
2023-02-22T18:23:28.139Z,2.10
2023-02-22T18:26:09.710Z,2.40
2023-02-22T18:28:37.241Z,2.20
2023-02-22T18:31:15.154Z,2.30
2023-02-22T18:33:47.389Z,2.08
2023-02-22T18:36:16.145Z,2.22
2023-02-22T18:38:43.848Z,2.38
2023-02-22T18:41:19.738Z,2.63
2023-02-22T18:43:46.697Z,2.78
2023-02-22T18:46:17.797Z,3.03
2023-02-22T18:48:46.357Z,2.80
2023-02-22T18:51:15.432Z,2.75
2023-02-22T18:53:47.938Z,2.80
2023-02-22T18:56:21.876Z,2.55
2023-02-22T18:58:56.135Z,3.00
2023-02-22T19:01:23.447Z,3.10
2023-02-22T19:03:51.562Z,3.10
2023-02-22T19:06:19.813Z,3.15
2023-02-22T19:08:47.304Z,3.00
2023-02-22T19:11:23.041Z,3.30
2023-02-22T19:13:56.547Z,3.15
2023-02-22T19:16:26.418Z,2.75
2023-02-22T19:18:57.200Z,2.80
2023-02-22T19:21:26.637Z,2.78
2023-02-22T19:24:00.375Z,2.70
2023-02-22T19:26:28.001Z,2.90
2023-02-22T19:28:56.650Z,3.15
2023-02-22T19:31:31.313Z,3.53
2023-02-22T19:34:02.895Z,3.53
2023-02-22T19:36:30.200Z,4.15
2023-02-22T19:39:01.602Z,4.15
2023-02-22T19:41:29.393Z,4.55
2023-02-22T19:43:56.524Z,4.63
2023-02-22T19:46:25.108Z,4.43
2023-02-22T19:48:53.531Z,4.80
2023-02-22T19:51:25.187Z,4.78
2023-02-22T19:53:55.172Z,6.05
2023-02-22T19:56:27.285Z,5.40
2023-02-22T19:58:56.879Z,4.70
2023-02-22T20:01:26.566Z,4.13
2023-02-22T20:04:01.880Z,3.92
2023-02-22T20:06:40.133Z,3.72
2023-02-22T20:09:17.983Z,3.60
2023-02-22T20:11:53.487Z,3.70
2023-02-22T20:14:23.527Z,3.38
2023-02-22T20:16:51.679Z,3.42
2023-02-22T20:19:19.329Z,3.60
2023-02-22T20:21:46.086Z,3.53
2023-02-22T20:24:15.107Z,3.78
2023-02-22T20:26:42.631Z,3.58
2023-02-22T20:29:10.966Z,3.80
2023-02-22T20:31:39.684Z,3.80
2023-02-22T20:34:07.903Z,3.92
2023-02-22T20:36:38.278Z,4.30
2023-02-22T20:39:16.020Z,3.85
2023-02-22T20:41:46.980Z,3.55
2023-02-22T20:44:16.688Z,4.35
2023-02-22T20:46:43.880Z,4.20
2023-02-22T20:49:13.662Z,4.43
2023-02-22T20:51:41.831Z,4.03
2023-02-22T20:54:12.392Z,4.10
2023-02-22T20:56:44.465Z,4.45
2023-02-22T20:59:13.311Z,4.57
2023-02-22T21:01:40.610Z,4.60
2023-02-22T21:04:10.446Z,5.18
2023-02-22T21:06:39.560Z,5.45
2023-02-22T21:09:10.851Z,4.78
2023-02-22T21:11:38.984Z,5.47
2023-02-22T21:14:06.229Z,5.80
2023-02-22T21:16:36.016Z,6.80
2023-02-22T21:19:05.490Z,7.03
2023-02-22T21:21:32.864Z,6.40
2023-02-22T21:24:03.687Z,5.63
2023-02-22T21:26:33.208Z,5.30
2023-02-22T21:29:04.912Z,5.63
2023-02-22T21:31:33.206Z,6.22
2023-02-22T21:34:10.773Z,6.20
2023-02-22T21:36:40.833Z,5.50
2023-02-22T21:39:18.092Z,5.07
2023-02-22T21:41:55.358Z,4.93
2023-02-22T21:44:22.240Z,4.65
2023-02-22T21:46:49.880Z,4.75
2023-02-22T21:49:17.730Z,5.22
2023-02-22T21:51:44.967Z,5.47
2023-02-22T21:54:12.601Z,5.60
2023-02-22T21:56:43.861Z,5.22
2023-02-22T21:59:15.335Z,5.00
2023-02-22T22:01:50.670Z,5.15
2023-02-22T22:04:20.264Z,5.18
2023-02-22T22:06:56.921Z,5.15
2023-02-22T22:09:29.211Z,5.22
2023-02-22T22:11:58.878Z,4.57
2023-02-22T22:14:27.016Z,4.32
2023-02-22T22:16:58.452Z,4.68
2023-02-22T22:22:24.160Z,4.78
2023-02-22T22:24:53.735Z,5.10
2023-02-22T22:27:21.268Z,4.80
2023-02-22T22:29:48.135Z,5.25
2023-02-22T22:32:16.086Z,4.82
2023-02-22T22:34:43.540Z,4.85
2023-02-22T22:37:17.248Z,5.10
2023-02-22T22:39:52.672Z,4.88
2023-02-22T22:42:19.448Z,5.07
2023-02-22T22:44:50.229Z,5.28
2023-02-22T22:47:19.437Z,4.90
2023-02-22T22:49:47.786Z,5.18
2023-02-22T22:52:16.496Z,5.50
2023-02-22T22:54:43.809Z,5.25
2023-02-22T22:57:11.611Z,5.35
2023-02-22T22:59:39.628Z,5.15
2023-02-22T23:02:10.684Z,4.85
2023-02-22T23:04:38.106Z,5.00
2023-02-22T23:07:07.745Z,4.70
2023-02-22T23:09:37.432Z,5.30
2023-02-22T23:12:09.079Z,5.57
2023-02-22T23:14:45.238Z,5.30
2023-02-22T23:17:15.822Z,5.30
2023-02-22T23:19:47.547Z,6.50
2023-02-22T23:22:14.672Z,6.38
2023-02-22T23:24:42.600Z,6.25
2023-02-22T23:27:10.806Z,5.80
2023-02-22T23:29:39.361Z,5.97
2023-02-22T23:32:07.081Z,5.80
2023-02-22T23:34:35.813Z,5.93
2023-02-22T23:37:03.070Z,5.93
2023-02-22T23:39:30.055Z,5.40
2023-02-22T23:42:01.214Z,5.65
2023-02-22T23:44:31.572Z,5.53
2023-02-22T23:46:58.435Z,5.32
2023-02-22T23:49:38.727Z,5.57
2023-02-22T23:52:06.961Z,5.60
2023-02-22T23:54:40.067Z,5.85
2023-02-22T23:57:08.728Z,4.97
2023-02-22T23:59:36.054Z,5.47
